Time;durP1;ratioP1;P1;durP2;ratioP2;P2;SDS_P1;SDS_P2;PMS_P1;PMS_P2;Temp;Humidity;BMP_temperature;BMP_pressure;BME280_temperature;BME280_humidity;BME280_pressure;Samples;Min_cycle;Max_cycle;Signal;HPM_P1;HPM_P2
2022/07/24 00:00:26;;;;;;;3.13;1.20;;;12.60;72.40;;;;;;5067537;28;20435;-50
2022/07/24 00:02:52;;;;;;;2.22;1.30;;;12.50;71.10;;;;;;5050221;28;20111;-48
2022/07/24 00:05:17;;;;;;;1.20;1.00;;;12.50;72.40;;;;;;5049963;28;20499;-48
2022/07/24 00:07:43;;;;;;;1.48;1.05;;;12.40;75.50;;;;;;5070445;28;20024;-47
2022/07/24 00:10:09;;;;;;;4.25;1.30;;;12.30;73.80;;;;;;5049861;28;20083;-47
2022/07/24 00:12:35;;;;;;;1.73;1.20;;;12.30;74.10;;;;;;5070534;28;20481;-48
2022/07/24 00:15:01;;;;;;;2.15;1.00;;;12.30;74.10;;;;;;5044396;28;20021;-51
2022/07/24 00:17:26;;;;;;;1.10;1.00;;;12.20;74.30;;;;;;5070205;28;20461;-48
2022/07/24 00:19:51;;;;;;;1.17;1.08;;;12.20;74.50;;;;;;5049772;28;20556;-47
2022/07/24 00:22:17;;;;;;;2.13;1.20;;;12.20;75.40;;;;;;5070158;28;20074;-50
2022/07/24 00:24:42;;;;;;;1.10;0.90;;;12.10;75.80;;;;;;5049689;28;20401;-53
2022/07/24 00:27:08;;;;;;;1.60;1.20;;;12.10;76.70;;;;;;5070182;28;20033;-53
2022/07/24 00:29:33;;;;;;;1.20;1.10;;;12.00;77.80;;;;;;5049598;28;20107;-49
2022/07/24 00:31:59;;;;;;;3.22;1.10;;;12.00;77.50;;;;;;5070094;28;20029;-49
2022/07/24 00:34:24;;;;;;;1.20;1.10;;;12.00;78.10;;;;;;5060240;28;20414;-50
2022/07/24 00:36:50;;;;;;;1.35;1.08;;;11.90;78.70;;;;;;5051199;28;20626;-49
2022/07/24 00:39:16;;;;;;;1.75;1.10;;;11.90;79.20;;;;;;5068152;28;20111;-48
2022/07/24 00:41:42;;;;;;;1.08;0.98;;;11.90;80.00;;;;;;5049679;28;20025;-48
2022/07/24 00:44:11;;;;;;;1.95;1.23;;;11.80;81.20;;;;;;5067910;28;20033;-51
2022/07/24 00:46:38;;;;;;;1.10;1.00;;;11.80;81.00;;;;;;5050867;28;20025;-50
2022/07/24 00:49:07;;;;;;;1.40;1.00;;;11.80;83.10;;;;;;5068012;28;20047;-52
2022/07/24 00:51:34;;;;;;;1.60;1.30;;;11.80;82.30;;;;;;5070461;28;20028;-52
2022/07/24 00:54:04;;;;;;;2.05;1.15;;;11.80;84.10;;;;;;5055720;28;20071;-54
2022/07/24 00:56:30;;;;;;;1.20;1.10;;;11.70;84.20;;;;;;5070395;28;20070;-50
2022/07/24 00:58:55;;;;;;;3.28;1.60;;;11.70;85.30;;;;;;5055096;28;20037;-48
2022/07/24 01:01:21;;;;;;;1.63;1.35;;;11.60;86.60;;;;;;5070301;28;20024;-50
2022/07/24 01:03:47;;;;;;;1.90;1.45;;;11.60;86.90;;;;;;5053544;28;20023;-49
2022/07/24 01:06:13;;;;;;;2.35;1.65;;;11.60;86.50;;;;;;5070449;28;20464;-53
2022/07/24 01:08:40;;;;;;;1.92;1.48;;;11.50;85.90;;;;;;5052031;28;20055;-51
2022/07/24 01:11:06;;;;;;;3.17;1.58;;;11.50;87.10;;;;;;5070220;28;20028;-50
2022/07/24 01:13:31;;;;;;;2.40;1.80;;;11.50;87.00;;;;;;5046350;28;20020;-48
2022/07/24 01:15:57;;;;;;;2.33;1.60;;;11.40;88.70;;;;;;5050148;28;20439;-50
2022/07/24 01:18:23;;;;;;;2.58;1.48;;;11.40;87.90;;;;;;5067665;28;20032;-52
2022/07/24 01:20:49;;;;;;;2.10;1.77;;;11.40;88.20;;;;;;5069852;28;20416;-49
2022/07/24 01:23:15;;;;;;;2.28;1.48;;;11.40;89.90;;;;;;5050527;28;20083;-48
2022/07/24 01:25:42;;;;;;;2.72;1.65;;;11.40;89.40;;;;;;5067723;28;20409;-50
2022/07/24 01:28:08;;;;;;;2.05;1.80;;;11.30;90.40;;;;;;5050132;28;20036;-51
2022/07/24 01:30:33;;;;;;;2.20;1.58;;;11.30;91.10;;;;;;5048281;28;20102;-53
2022/07/24 01:32:59;;;;;;;2.97;1.45;;;11.20;90.60;;;;;;5069013;28;20067;-51
2022/07/24 01:35:25;;;;;;;1.48;1.30;;;11.20;90.70;;;;;;5048318;28;20332;-49
2022/07/24 01:37:52;;;;;;;3.88;1.60;;;11.20;91.30;;;;;;5068869;28;20070;-51
2022/07/24 01:40:19;;;;;;;2.42;1.58;;;11.10;91.20;;;;;;5048040;28;20489;-55
2022/07/24 01:46:09;;;;;;;2.83;1.58;;;11.10;91.80;;;;;;5030269;28;20028;-53
2022/07/24 01:48:35;;;;;;;1.40;1.30;;;11.10;92.60;;;;;;5057316;28;20049;-50
2022/07/24 01:51:00;;;;;;;1.40;1.30;;;11.00;92.90;;;;;;5069382;28;20023;-53
2022/07/24 01:53:26;;;;;;;3.33;1.38;;;11.00;93.20;;;;;;5048131;28;20040;-47
2022/07/24 01:55:52;;;;;;;2.42;1.80;;;10.90;92.90;;;;;;5069261;28;20037;-53
2022/07/24 01:58:18;;;;;;;1.63;1.38;;;10.90;93.10;;;;;;5049651;28;20341;-52
2022/07/24 02:00:43;;;;;;;2.10;1.50;;;10.90;93.10;;;;;;5047521;28;20401;-52
2022/07/24 02:03:09;;;;;;;1.25;1.15;;;10.90;93.60;;;;;;5068471;28;20033;-54
2022/07/24 02:05:34;;;;;;;2.20;1.63;;;10.90;93.80;;;;;;5047738;28;20105;-53
2022/07/24 02:08:00;;;;;;;1.42;1.13;;;10.80;93.90;;;;;;5068404;28;20059;-50
2022/07/24 02:10:28;;;;;;;1.50;1.40;;;10.80;94.10;;;;;;5047627;28;20466;-53
2022/07/24 02:12:54;;;;;;;2.30;1.45;;;10.80;94.10;;;;;;5068049;28;20020;-50
2022/07/24 02:15:20;;;;;;;3.03;1.50;;;10.80;94.30;;;;;;5044770;28;20025;-54
2022/07/24 02:17:47;;;;;;;2.28;1.70;;;10.70;94.20;;;;;;5068002;28;20040;-51
2022/07/24 02:20:13;;;;;;;2.05;1.60;;;10.70;95.10;;;;;;5047370;28;20091;-51
2022/07/24 02:22:38;;;;;;;2.35;1.50;;;10.70;95.20;;;;;;5068109;28;20024;-50
2022/07/24 02:25:04;;;;;;;1.38;1.27;;;10.70;95.70;;;;;;5047062;28;20553;-52
2022/07/24 02:27:29;;;;;;;1.77;1.35;;;10.60;95.60;;;;;;5067981;28;20028;-52
2022/07/24 02:29:55;;;;;;;1.88;1.50;;;10.60;96.80;;;;;;5047350;28;20044;-54
2022/07/24 02:32:20;;;;;;;2.08;1.58;;;10.60;96.40;;;;;;5067884;28;20098;-50
2022/07/24 02:34:46;;;;;;;1.92;1.55;;;10.60;96.30;;;;;;5057402;28;20151;-52
2022/07/24 02:37:11;;;;;;;4.05;1.75;;;10.50;96.50;;;;;;5049099;28;20029;-53
2022/07/24 02:39:37;;;;;;;1.92;1.67;;;10.50;96.70;;;;;;5065722;28;20024;-53
2022/07/24 02:42:02;;;;;;;2.50;1.70;;;10.50;96.80;;;;;;5049207;28;20604;-55
2022/07/24 02:44:28;;;;;;;1.50;1.40;;;10.40;97.10;;;;;;5065788;28;20029;-53
2022/07/24 02:46:53;;;;;;;1.42;1.33;;;10.40;98.10;;;;;;5068565;28;20583;-54
2022/07/24 02:49:18;;;;;;;3.10;1.70;;;10.40;97.60;;;;;;5052935;28;20044;-53
2022/07/24 02:51:44;;;;;;;1.52;1.42;;;10.40;97.80;;;;;;5068455;28;20465;-53
2022/07/24 02:54:10;;;;;;;1.80;1.60;;;10.40;97.80;;;;;;5051742;28;20107;-53
2022/07/24 02:56:35;;;;;;;2.17;1.65;;;10.30;97.90;;;;;;5068541;28;20028;-53
2022/07/24 02:59:01;;;;;;;3.97;1.55;;;10.30;97.80;;;;;;5050329;28;20480;-51
2022/07/24 03:01:26;;;;;;;2.33;1.55;;;10.30;98.50;;;;;;5068202;28;20039;-49
2022/07/24 03:03:51;;;;;;;3.03;1.77;;;10.30;98.30;;;;;;5048755;28;20063;-47
2022/07/24 03:06:17;;;;;;;1.70;1.60;;;10.30;98.80;;;;;;5068178;28;20031;-51
2022/07/24 03:08:42;;;;;;;2.30;1.90;;;10.20;98.80;;;;;;5047313;28;20436;-52
2022/07/24 03:11:08;;;;;;;2.88;2.10;;;10.20;99.20;;;;;;5068136;28;20111;-53
2022/07/24 03:13:33;;;;;;;2.67;1.80;;;10.20;99.30;;;;;;5050959;28;20024;-50
2022/07/24 03:15:59;;;;;;;3.20;2.00;;;10.20;99.20;;;;;;5047072;28;20061;-48
2022/07/24 03:18:24;;;;;;;2.05;1.73;;;10.20;99.30;;;;;;5067217;28;20035;-50
2022/07/24 03:20:50;;;;;;;4.80;1.92;;;10.20;99.60;;;;;;5046663;28;20074;-54
2022/07/24 03:23:15;;;;;;;2.63;1.80;;;10.20;99.70;;;;;;5067271;28;20424;-52
2022/07/24 03:25:41;;;;;;;3.38;1.70;;;10.10;99.90;;;;;;5046645;28;20033;-51
2022/07/24 03:28:06;;;;;;;2.67;1.63;;;10.20;99.90;;;;;;5067113;28;20028;-51
2022/07/24 03:30:32;;;;;;;2.10;1.58;;;10.20;99.90;;;;;;5046522;28;20030;-47
2022/07/24 03:32:57;;;;;;;3.63;1.77;;;10.10;99.90;;;;;;5067155;28;20117;-51
2022/07/24 03:35:22;;;;;;;2.60;1.90;;;10.20;99.90;;;;;;5046518;28;20021;-51
2022/07/24 03:37:48;;;;;;;1.85;1.50;;;10.20;99.90;;;;;;5069257;28;20610;-51
2022/07/24 03:40:13;;;;;;;2.65;1.90;;;10.20;99.90;;;;;;5050670;28;20025;-64
2022/07/24 03:42:39;;;;;;;2.13;1.83;;;10.20;99.90;;;;;;5071155;28;20035;-51
2022/07/24 03:45:05;;;;;;;2.65;2.00;;;10.20;99.90;;;;;;5061447;28;20029;-51
2022/07/24 03:47:31;;;;;;;1.83;1.40;;;10.30;99.90;;;;;;5054237;28;20049;-51
2022/07/24 03:49:56;;;;;;;3.33;1.92;;;10.30;99.90;;;;;;5069943;28;20152;-50
2022/07/24 03:52:22;;;;;;;1.70;1.60;;;10.30;99.90;;;;;;5052132;28;20029;-50
2022/07/24 03:54:47;;;;;;;3.05;2.05;;;10.30;99.90;;;;;;5069013;28;20032;-51
2022/07/24 03:57:13;;;;;;;2.72;1.90;;;10.40;99.90;;;;;;5052171;28;20249;-51
2022/07/24 03:59:38;;;;;;;3.15;2.15;;;10.40;99.90;;;;;;5068848;28;20056;-48
2022/07/24 04:02:04;;;;;;;2.55;1.83;;;10.50;99.90;;;;;;5071641;28;20024;-48
2022/07/24 04:04:29;;;;;;;2.47;1.65;;;10.80;99.90;;;;;;5055460;28;20059;-53
2022/07/24 04:06:55;;;;;;;2.97;1.60;;;11.70;99.90;;;;;;5070179;28;20035;-54
2022/07/24 04:09:20;;;;;;;3.13;1.63;;;12.60;98.40;;;;;;5054086;28;20048;-52
2022/07/24 04:11:46;;;;;;;1.25;1.15;;;13.60;95.20;;;;;;5071467;28;20081;-55
2022/07/24 04:14:12;;;;;;;2.70;1.60;;;14.50;91.70;;;;;;5052235;28;20033;-50
2022/07/24 04:16:38;;;;;;;1.20;1.10;;;15.30;85.10;;;;;;5051230;28;20041;-52
2022/07/24 04:19:03;;;;;;;2.60;1.63;;;16.00;79.60;;;;;;5068582;28;20028;-52
2022/07/24 04:21:28;;;;;;;2.15;1.52;;;16.70;76.80;;;;;;5071148;28;20024;-51
2022/07/24 04:23:54;;;;;;;1.45;1.30;;;17.40;73.20;;;;;;5049881;28;20078;-53
2022/07/24 04:26:19;;;;;;;1.13;1.02;;;18.10;70.40;;;;;;5071210;28;20480;-53
2022/07/24 04:28:45;;;;;;;1.38;1.10;;;18.80;65.50;;;;;;5051554;28;20095;-54
2022/07/24 04:31:10;;;;;;;1.63;1.13;;;19.20;61.40;;;;;;5049753;28;20417;-53
2022/07/24 04:33:36;;;;;;;1.33;1.23;;;19.70;60.40;;;;;;5070133;28;20035;-53
2022/07/24 04:36:03;;;;;;;1.85;1.45;;;20.30;58.30;;;;;;5049646;28;20037;-48
2022/07/24 04:38:30;;;;;;;1.20;1.10;;;20.70;55.60;;;;;;5070291;28;20028;-50
2022/07/24 04:40:55;;;;;;;2.33;1.30;;;21.20;52.80;;;;;;5049386;28;20079;-53
2022/07/24 04:43:21;;;;;;;1.77;1.25;;;21.70;50.80;;;;;;5070195;28;20286;-51
2022/07/24 04:45:46;;;;;;;2.55;1.50;;;22.20;47.80;;;;;;5049878;28;20039;-52
2022/07/24 04:48:12;;;;;;;2.80;1.20;;;22.70;45.70;;;;;;5061133;28;20048;-51
2022/07/24 04:50:37;;;;;;;1.02;0.95;;;23.20;43.90;;;;;;5054310;28;20037;-48
2022/07/24 04:53:03;;;;;;;2.38;1.02;;;23.70;41.60;;;;;;5070042;28;20062;-51
2022/07/24 04:55:28;;;;;;;2.40;1.20;;;24.20;38.60;;;;;;5049279;28;20397;-49
2022/07/24 04:57:54;;;;;;;1.40;1.10;;;24.70;36.30;;;;;;5069692;28;20033;-49
2022/07/24 05:00:20;;;;;;;1.98;1.10;;;25.20;33.30;;;;;;5060021;28;20031;-52
2022/07/24 05:02:46;;;;;;;1.42;1.08;;;25.50;31.30;;;;;;5050931;28;20078;-52
2022/07/24 05:05:11;;;;;;;1.30;1.00;;;26.00;29.10;;;;;;5067728;28;20036;-49
2022/07/24 05:07:37;;;;;;;1.08;0.98;;;26.40;27.40;;;;;;5050777;28;20651;-48
2022/07/24 05:10:04;;;;;;;1.08;0.98;;;26.80;25.00;;;;;;5067609;28;20508;-50
2022/07/24 05:12:30;;;;;;;2.10;1.27;;;27.10;23.20;;;;;;5050535;28;20059;-48
2022/07/24 05:14:55;;;;;;;1.17;1.00;;;27.30;21.10;;;;;;5064467;28;20071;-51
2022/07/24 05:17:21;;;;;;;1.10;0.90;;;27.60;19.80;;;;;;5070207;28;20039;-49
2022/07/24 05:19:46;;;;;;;1.17;0.93;;;27.90;18.60;;;;;;5054439;28;20078;-49
2022/07/24 05:22:11;;;;;;;1.50;0.90;;;28.20;17.30;;;;;;5070003;28;20024;-48
2022/07/24 05:24:37;;;;;;;0.60;0.60;;;28.40;15.40;;;;;;5052840;28;20032;-50
2022/07/24 05:27:03;;;;;;;1.10;0.88;;;28.80;14.80;;;;;;5070143;28;20492;-55
2022/07/24 05:29:28;;;;;;;0.90;0.90;;;29.00;13.30;;;;;;5051366;28;20374;-50
2022/07/24 05:31:54;;;;;;;0.63;0.63;;;29.50;12.60;;;;;;5068551;28;20488;-48
2022/07/24 05:34:23;;;;;;;1.05;0.80;;;29.80;11.40;;;;;;5049993;28;20032;-51
2022/07/24 05:36:49;;;;;;;1.60;0.80;;;30.30;10.50;;;;;;5069845;28;20025;-55
2022/07/24 05:39:15;;;;;;;1.83;0.90;;;30.70;9.50;;;;;;5048956;28;20112;-51
2022/07/24 05:41:41;;;;;;;1.10;0.60;;;31.00;8.60;;;;;;5069621;28;20099;-50
2022/07/24 05:44:07;;;;;;;0.57;0.55;;;31.30;7.70;;;;;;5048705;28;20495;-52
2022/07/24 05:46:32;;;;;;;1.70;0.95;;;31.60;6.60;;;;;;5067382;28;20043;-54
2022/07/24 05:48:58;;;;;;;2.97;0.90;;;32.00;5.60;;;;;;5049090;28;20555;-52
2022/07/24 05:51:25;;;;;;;1.75;0.80;;;32.30;4.70;;;;;;5047540;28;20025;-50
2022/07/24 05:53:51;;;;;;;1.17;1.08;;;32.40;3.20;;;;;;5067938;28;20443;-53
2022/07/24 05:56:16;;;;;;;1.40;0.70;;;32.80;2.60;;;;;;5047080;28;20029;-53
2022/07/24 05:58:42;;;;;;;1.05;0.65;;;33.10;1.90;;;;;;5067525;28;20032;-50
2022/07/24 06:01:07;;;;;;;2.08;0.73;;;33.50;1.00;;;;;;5046224;28;20048;-49
2022/07/24 06:03:33;;;;;;;2.35;0.80;;;34.00;1.00;;;;;;5067421;28;20032;-49
2022/07/24 06:05:58;;;;;;;2.33;0.90;;;34.30;1.00;;;;;;5047073;28;20013;-50
2022/07/24 06:08:24;;;;;;;2.05;0.50;;;34.70;1.00;;;;;;5067475;28;20416;-50
2022/07/24 06:10:49;;;;;;;1.75;0.70;;;35.00;1.00;;;;;;5045594;28;20041;-49
2022/07/24 06:13:15;;;;;;;1.13;0.60;;;35.30;1.00;;;;;;5058518;28;20330;-49
2022/07/24 06:15:40;;;;;;;1.42;0.80;;;35.60;1.00;;;;;;5057979;28;20115;-52
2022/07/24 06:18:06;;;;;;;0.98;0.70;;;35.90;1.00;;;;;;5048661;28;20067;-54
2022/07/24 06:20:31;;;;;;;0.60;0.40;;;36.20;1.00;;;;;;5065621;28;20025;-53
2022/07/24 06:22:57;;;;;;;1.77;1.05;;;36.60;1.00;;;;;;5048487;28;20057;-51
2022/07/24 06:25:22;;;;;;;1.15;0.60;;;36.90;1.00;;;;;;5065372;28;20059;-52
2022/07/24 06:27:49;;;;;;;1.48;0.50;;;37.20;1.00;;;;;;5048326;28;20052;-52
2022/07/24 06:30:18;;;;;;;1.75;0.63;;;37.40;1.00;;;;;;5065433;28;20033;-50
2022/07/24 06:32:44;;;;;;;1.15;0.60;;;37.70;1.00;;;;;;5048038;28;20033;-50
2022/07/24 06:35:10;;;;;;;0.80;0.60;;;38.00;1.00;;;;;;5065255;28;20027;-51
2022/07/24 06:37:35;;;;;;;0.50;0.43;;;38.10;1.00;;;;;;5067796;28;20025;-54
2022/07/24 06:40:01;;;;;;;0.95;0.57;;;38.30;1.00;;;;;;5051998;28;20085;-52
2022/07/24 06:42:27;;;;;;;3.63;0.60;;;38.40;1.00;;;;;;5067917;28;20822;-52
2022/07/24 06:44:52;;;;;;;1.80;0.90;;;38.60;1.00;;;;;;5050761;28;20075;-52
2022/07/24 06:47:19;;;;;;;1.05;0.50;;;38.70;1.00;;;;;;5032602;28;973131;-53
2022/07/24 06:49:44;;;;;;;1.25;0.60;;;38.80;1.00;;;;;;5049396;28;20086;-54
2022/07/24 06:52:10;;;;;;;0.55;0.47;;;39.00;1.00;;;;;;5068443;28;20044;-52
2022/07/24 06:54:35;;;;;;;1.38;0.70;;;39.30;1.00;;;;;;5048496;28;20033;-48
2022/07/24 06:57:01;;;;;;;1.27;0.60;;;39.60;1.00;;;;;;5068446;28;20027;-55
2022/07/24 06:59:26;;;;;;;0.77;0.43;;;40.00;1.00;;;;;;5047102;28;20233;-54
2022/07/24 07:01:52;;;;;;;2.80;0.60;;;40.20;1.00;;;;;;5068537;28;20044;-52
2022/07/24 07:04:17;;;;;;;0.47;0.30;;;40.40;1.00;;;;;;5048754;28;20511;-53
2022/07/24 07:06:43;;;;;;;2.33;0.77;;;40.50;1.00;;;;;;5046758;28;20021;-54
2022/07/24 07:09:08;;;;;;;0.90;0.60;;;40.50;1.00;;;;;;5067512;28;20381;-55
2022/07/24 07:11:34;;;;;;;0.35;0.35;;;40.60;1.00;;;;;;5046871;28;20382;-54
2022/07/24 07:13:59;;;;;;;1.52;0.82;;;40.90;1.00;;;;;;5054885;28;20060;-49
2022/07/24 07:16:25;;;;;;;0.40;0.40;;;40.70;1.00;;;;;;5049501;28;20057;-55
2022/07/24 07:18:50;;;;;;;1.50;0.43;;;40.80;1.00;;;;;;5067187;28;20500;-52
2022/07/24 07:21:16;;;;;;;1.60;0.60;;;40.90;1.00;;;;;;5046783;28;20033;-55
2022/07/24 07:23:41;;;;;;;0.60;0.50;;;40.60;1.00;;;;;;5067227;28;20036;-51
2022/07/24 07:26:07;;;;;;;1.00;0.50;;;40.60;1.00;;;;;;5047047;28;20112;-54
2022/07/24 07:28:32;;;;;;;0.63;0.38;;;40.90;1.00;;;;;;5067250;28;20489;-54
2022/07/24 07:30:58;;;;;;;0.43;0.40;;;41.20;1.00;;;;;;5046649;28;20485;-53
2022/07/24 07:33:23;;;;;;;0.90;0.65;;;41.10;1.00;;;;;;5067093;28;20036;-54
2022/07/24 07:35:49;;;;;;;1.08;0.68;;;41.20;1.00;;;;;;5056970;28;20036;-53
2022/07/24 07:38:15;;;;;;;0.90;0.40;;;41.20;1.00;;;;;;5048318;28;20029;-53
2022/07/24 07:40:40;;;;;;;0.50;0.50;;;41.30;1.00;;;;;;5065138;28;20272;-54
2022/07/24 07:43:06;;;;;;;2.92;0.52;;;41.30;1.00;;;;;;5048655;28;20036;-54
2022/07/24 07:45:31;;;;;;;0.75;0.60;;;41.20;1.00;;;;;;5065117;28;20040;-55
2022/07/24 07:47:57;;;;;;;0.47;0.47;;;41.30;1.00;;;;;;5054194;28;20532;-51
2022/07/24 07:50:22;;;;;;;0.55;0.47;;;41.00;1.00;;;;;;5066121;28;20027;-55
2022/07/24 07:52:48;;;;;;;0.57;0.50;;;40.60;1.00;;;;;;5068037;28;20378;-52
2022/07/24 07:55:13;;;;;;;0.93;0.55;;;40.80;1.00;;;;;;5051785;28;20032;-54
2022/07/24 07:57:41;;;;;;;0.82;0.40;;;40.90;1.00;;;;;;5067762;28;20278;-55
2022/07/24 08:00:07;;;;;;;0.45;0.40;;;41.00;1.00;;;;;;5050210;28;20021;-55
2022/07/24 08:02:33;;;;;;;0.70;0.40;;;40.90;1.00;;;;;;5067705;28;20025;-52
2022/07/24 08:04:58;;;;;;;0.55;0.50;;;40.90;1.00;;;;;;5049209;28;20066;-54
2022/07/24 08:07:24;;;;;;;0.70;0.55;;;41.00;1.00;;;;;;5067721;28;20032;-54
2022/07/24 08:09:49;;;;;;;0.57;0.50;;;41.00;1.00;;;;;;5047729;28;20041;-55
2022/07/24 08:12:15;;;;;;;1.15;0.68;;;40.10;1.00;;;;;;5067739;28;20104;-56
2022/07/24 08:14:40;;;;;;;1.05;0.73;;;39.50;1.00;;;;;;5040262;28;20508;-54
2022/07/24 08:17:06;;;;;;;0.47;0.32;;;39.40;1.00;;;;;;5067694;28;20036;-56
2022/07/24 08:19:31;;;;;;;0.57;0.43;;;39.10;1.00;;;;;;5047918;28;20037;-54
2022/07/24 08:21:56;;;;;;;1.30;0.50;;;38.90;1.00;;;;;;5046249;28;20037;-53
2022/07/24 08:24:22;;;;;;;0.57;0.50;;;39.00;1.00;;;;;;5069521;28;20051;-51
2022/07/24 08:26:48;;;;;;;0.57;0.38;;;39.00;1.00;;;;;;5049826;28;20198;-53
2022/07/24 08:29:14;;;;;;;1.00;0.40;;;38.90;1.00;;;;;;5070701;28;20089;-54
2022/07/24 08:31:40;;;;;;;0.60;0.60;;;38.70;1.00;;;;;;5049694;28;20039;-52
2022/07/24 08:34:05;;;;;;;1.00;0.60;;;38.40;1.00;;;;;;5070223;28;20020;-50
2022/07/24 08:36:31;;;;;;;0.43;0.43;;;38.10;1.00;;;;;;5049820;28;20447;-49
2022/07/24 08:38:57;;;;;;;0.60;0.60;;;37.80;1.00;;;;;;5070230;28;20028;-52
2022/07/24 08:41:22;;;;;;;0.43;0.43;;;37.60;1.00;;;;;;5049387;28;20413;-51
2022/07/24 08:43:48;;;;;;;0.70;0.45;;;37.30;1.00;;;;;;5069977;28;20083;-54
2022/07/24 08:46:15;;;;;;;1.48;0.45;;;36.90;1.00;;;;;;5049782;28;20078;-52
2022/07/24 08:48:45;;;;;;;0.73;0.50;;;36.40;1.00;;;;;;5070090;28;20058;-53
2022/07/24 08:51:13;;;;;;;0.60;0.55;;;36.10;1.00;;;;;;5049310;28;20028;-52
2022/07/24 08:53:39;;;;;;;0.75;0.50;;;35.90;1.00;;;;;;5070189;28;20024;-53
2022/07/24 08:56:05;;;;;;;0.68;0.50;;;35.60;1.00;;;;;;5059863;28;20106;-55
2022/07/24 08:58:30;;;;;;;0.95;0.50;;;35.50;1.00;;;;;;5050909;28;20029;-54
2022/07/24 09:00:56;;;;;;;0.75;0.47;;;35.30;1.00;;;;;;5067890;28;20029;-49
2022/07/24 09:03:21;;;;;;;0.50;0.50;;;35.00;1.00;;;;;;5050951;28;20512;-54
2022/07/24 09:05:58;;;;;;;0.65;0.40;;;34.80;1.00;;;;;;5067878;28;20016;-55
2022/07/24 09:08:24;;;;;;;1.35;0.90;;;34.60;1.00;;;;;;5050612;28;20025;-51
2022/07/24 09:11:04;;;;;;;0.60;0.50;;;34.50;1.00;;;;;;5067618;28;20075;-54
2022/07/24 09:14:29;;;;;;;0.85;0.50;;;34.60;1.00;;;;;;5052201;28;20039;-52
2022/07/24 09:16:26;;;;;;;0.55;0.50;;;34.10;1.00;;;;;;5054284;28;20037;-51
2022/07/24 09:19:03;;;;;;;0.93;0.50;;;33.80;1.00;;;;;;5030225;28;20083;-52
2022/07/24 09:21:33;;;;;;;1.10;0.60;;;33.70;1.00;;;;;;5041717;28;20040;-53
2022/07/24 09:24:02;;;;;;;0.40;0.40;;;33.70;1.00;;;;;;5069848;28;20074;-52
2022/07/24 09:26:44;;;;;;;0.77;0.60;;;33.80;1.00;;;;;;5048149;28;20029;-51
2022/07/24 09:29:12;;;;;;;0.60;0.40;;;33.90;1.00;;;;;;5030055;28;20029;-54
2022/07/24 09:31:58;;;;;;;1.23;0.50;;;33.80;1.00;;;;;;5053313;28;20036;-55
2022/07/24 09:34:26;;;;;;;0.52;0.52;;;33.60;1.00;;;;;;5029027;28;20039;-51
2022/07/24 09:36:59;;;;;;;1.80;0.43;;;33.40;1.00;;;;;;5051271;28;20032;-54
2022/07/24 09:39:26;;;;;;;0.67;0.50;;;33.40;1.00;;;;;;5069269;28;20044;-52
2022/07/24 09:41:54;;;;;;;0.57;0.40;;;33.30;1.00;;;;;;5048430;28;20032;-51
2022/07/24 09:44:20;;;;;;;0.57;0.40;;;33.00;1.00;;;;;;5069204;28;20024;-63
2022/07/24 09:46:47;;;;;;;1.17;0.43;;;32.90;1.00;;;;;;5048239;28;20025;-65
2022/07/24 09:49:20;;;;;;;0.55;0.45;;;32.80;1.00;;;;;;5068880;28;20037;-64
2022/07/24 09:52:16;;;;;;;0.90;0.50;;;32.60;1.00;;;;;;5048082;28;20028;-64
2022/07/24 09:54:48;;;;;;;0.40;0.40;;;32.60;1.00;;;;;;5029551;28;20021;-64
2022/07/24 09:57:17;;;;;;;0.80;0.40;;;32.50;1.00;;;;;;5048782;28;20040;-64
2022/07/24 09:59:47;;;;;;;0.40;0.40;;;32.50;1.00;;;;;;5067235;28;20373;-65
2022/07/24 10:02:18;;;;;;;2.45;0.50;;;32.50;1.00;;;;;;5047657;28;20496;-65
2022/07/24 10:04:45;;;;;;;0.40;0.40;;;32.50;1.00;;;;;;5068831;28;20061;-65
2022/07/24 10:07:13;;;;;;;0.95;0.50;;;32.30;1.00;;;;;;5047739;28;20025;-65
2022/07/24 10:09:44;;;;;;;0.40;0.40;;;32.10;1.00;;;;;;5069079;28;20036;-64
2022/07/24 10:12:18;;;;;;;0.80;0.52;;;31.90;1.00;;;;;;5047508;28;20122;-65
2022/07/24 10:14:45;;;;;;;0.70;0.70;;;31.60;1.00;;;;;;5025681;28;20029;-64
2022/07/24 10:17:12;;;;;;;1.33;0.63;;;31.40;1.00;;;;;;5048948;28;20531;-64
2022/07/24 10:19:45;;;;;;;0.50;0.38;;;31.20;1.00;;;;;;5068050;28;20684;-64
2022/07/24 10:22:22;;;;;;;1.05;0.70;;;31.10;1.00;;;;;;5047818;28;20025;-64
2022/07/24 10:24:56;;;;;;;0.47;0.47;;;30.90;1.00;;;;;;5029111;28;20036;-65
2022/07/24 10:27:31;;;;;;;0.88;0.60;;;30.60;1.00;;;;;;5047698;28;20029;-63
2022/07/24 10:30:00;;;;;;;0.77;0.77;;;30.40;1.00;;;;;;5029140;28;20031;-64
2022/07/24 10:32:26;;;;;;;2.78;0.60;;;30.30;1.00;;;;;;5047727;28;20119;-64
2022/07/24 10:35:04;;;;;;;0.32;0.32;;;30.00;1.00;;;;;;5068106;28;20650;-64
2022/07/24 10:37:36;;;;;;;0.50;0.50;;;29.60;1.00;;;;;;5046435;28;20036;-64
2022/07/24 10:40:27;;;;;;;1.42;0.70;;;29.50;1.00;;;;;;5027334;28;20414;-64
2022/07/24 10:43:08;;;;;;;1.23;0.65;;;29.20;1.00;;;;;;5028809;28;20043;-64
2022/07/24 10:45:43;;;;;;;0.60;0.60;;;29.10;1.00;;;;;;5065776;28;20033;-64
2022/07/24 10:48:21;;;;;;;0.52;0.50;;;28.80;1.00;;;;;;5060844;28;20073;-63
2022/07/24 10:51:02;;;;;;;1.30;0.80;;;28.60;1.00;;;;;;5065783;28;20432;-63
2022/07/24 10:53:40;;;;;;;0.63;0.60;;;28.40;1.00;;;;;;5068619;28;20032;-64
2022/07/24 10:56:33;;;;;;;1.55;0.90;;;28.40;1.00;;;;;;5041378;28;20047;-63
2022/07/24 10:59:10;;;;;;;1.52;1.00;;;28.20;1.00;;;;;;5028565;28;20036;-64
2022/07/24 11:01:44;;;;;;;0.68;0.68;;;28.10;1.00;;;;;;5049216;28;20029;-63
2022/07/24 11:04:18;;;;;;;2.90;0.82;;;28.10;1.00;;;;;;5028309;28;20030;-63
2022/07/24 11:06:53;;;;;;;0.63;0.63;;;27.90;1.00;;;;;;5052570;28;20075;-64
2022/07/24 11:09:21;;;;;;;0.57;0.57;;;27.60;1.00;;;;;;5028467;28;20026;-63
2022/07/24 11:11:52;;;;;;;0.93;0.77;;;27.30;1.00;;;;;;5053312;28;20385;-63
2022/07/24 11:14:23;;;;;;;0.60;0.60;;;27.30;1.00;;;;;;5064136;28;20029;-64
2022/07/24 11:16:49;;;;;;;0.63;0.60;;;27.40;1.00;;;;;;5039056;28;20648;-63
2022/07/24 11:19:14;;;;;;;1.95;0.75;;;27.50;1.00;;;;;;5067133;28;20516;-63
2022/07/24 11:21:42;;;;;;;1.85;0.75;;;27.50;1.00;;;;;;5046690;28;20094;-63
2022/07/24 11:24:13;;;;;;;1.30;1.00;;;27.60;1.00;;;;;;5067630;28;20040;-64
2022/07/24 11:26:43;;;;;;;3.47;0.95;;;27.60;1.00;;;;;;5046739;28;20039;-64
2022/07/24 11:29:18;;;;;;;0.77;0.68;;;27.50;1.00;;;;;;5067780;28;20412;-63
2022/07/24 11:31:45;;;;;;;;;;;27.50;1.00;;;;;;5047098;28;20393;-64
2022/07/24 11:34:10;;;;;;;0.73;0.73;;;27.50;1.00;;;;;;5067329;28;19908;-63
2022/07/24 11:36:39;;;;;;;0.80;0.77;;;27.20;1.00;;;;;;5056795;28;20031;-63
2022/07/24 11:39:05;;;;;;;1.05;0.82;;;26.80;1.00;;;;;;5046665;28;20116;-64
2022/07/24 11:42:07;;;;;;;2.72;0.80;;;26.60;1.00;;;;;;5065276;28;20123;-64
2022/07/24 11:44:36;;;;;;;1.67;0.90;;;26.60;1.00;;;;;;5054735;28;20037;-64
2022/07/24 11:47:15;;;;;;;0.73;0.70;;;26.70;1.00;;;;;;5046061;28;20040;-64
2022/07/24 11:49:53;;;;;;;1.70;1.10;;;26.80;1.00;;;;;;5027878;28;20021;-64
2022/07/24 11:52:24;;;;;;;1.13;0.90;;;26.80;1.00;;;;;;5041903;28;20485;-64
2022/07/24 11:54:52;;;;;;;1.63;0.75;;;26.90;1.00;;;;;;5066150;28;20032;-64
2022/07/24 11:57:32;;;;;;;1.05;0.90;;;27.00;1.00;;;;;;5046227;28;20040;-64
2022/07/24 11:59:58;;;;;;;0.88;0.80;;;27.10;1.00;;;;;;5071228;28;20040;-64
2022/07/24 12:02:24;;;;;;;1.20;0.93;;;27.10;1.00;;;;;;5050250;28;20040;-64
2022/07/24 12:04:50;;;;;;;0.90;0.88;;;27.10;1.00;;;;;;5070940;28;20488;-64
2022/07/24 12:07:24;;;;;;;1.60;0.80;;;27.20;1.00;;;;;;5050094;28;20027;-64
2022/07/24 12:09:54;;;;;;;1.00;0.90;;;27.10;1.00;;;;;;5071153;28;20036;-64
2022/07/24 12:12:23;;;;;;;1.20;0.80;;;27.20;1.00;;;;;;5049651;28;20021;-64
2022/07/24 12:15:00;;;;;;;2.22;1.10;;;27.20;1.00;;;;;;5064785;28;20047;-64
2022/07/24 12:17:25;;;;;;;0.85;0.82;;;27.20;1.00;;;;;;5045797;28;20028;-64
2022/07/24 12:19:53;;;;;;;1.05;1.00;;;27.20;1.00;;;;;;5070280;28;20032;-64
2022/07/24 12:22:20;;;;;;;0.95;0.95;;;27.20;1.00;;;;;;5049752;28;20036;-64
2022/07/24 12:24:46;;;;;;;1.40;0.70;;;27.30;1.00;;;;;;5070619;28;20058;-63
2022/07/24 12:27:11;;;;;;;1.13;0.60;;;27.30;1.00;;;;;;5049851;28;20037;-64
2022/07/24 12:29:43;;;;;;;1.48;0.80;;;27.30;1.00;;;;;;5070295;28;20036;-63
2022/07/24 12:32:16;;;;;;;1.63;0.90;;;27.30;1.00;;;;;;5049688;28;20028;-64
2022/07/24 12:34:43;;;;;;;1.33;0.90;;;27.20;1.00;;;;;;5070931;28;20028;-64
2022/07/24 12:37:16;;;;;;;1.10;0.80;;;26.90;1.00;;;;;;5048144;28;20268;-63
2022/07/24 12:39:46;;;;;;;1.20;0.98;;;26.90;1.00;;;;;;5070234;28;20041;-63
2022/07/24 12:42:11;;;;;;;0.95;0.90;;;27.00;1.00;;;;;;5049435;28;20128;-64
2022/07/24 12:44:44;;;;;;;2.00;0.90;;;27.00;1.00;;;;;;5069920;28;20455;-63
2022/07/24 12:47:12;;;;;;;0.85;0.85;;;27.00;1.00;;;;;;5049294;28;20020;-63
2022/07/24 12:49:42;;;;;;;0.73;0.70;;;27.10;1.00;;;;;;5070401;28;20127;-64
2022/07/24 12:52:25;;;;;;;0.80;0.80;;;27.10;1.00;;;;;;5048952;28;20035;-64
2022/07/24 12:54:51;;;;;;;0.80;0.80;;;27.20;1.00;;;;;;5030838;28;20025;-64
2022/07/24 12:57:21;;;;;;;0.82;0.80;;;27.20;1.00;;;;;;5053913;28;20025;-64